Weather reports worldwide

Advertisment
Xinzo De Limia, Spain (8050): temperature & dewpoint: 13.03.2019 10:00:00 - 19.03.2019 10:00:00 (CET)Xinzo De Limia, Spain (8050): wind speed & gusts: 13.03.2019 10:00:00 - 19.03.2019 10:00:00 (CET)Xinzo De Limia, Spain (8050): wind direction: 13.03.2019 10:00:00 - 19.03.2019 10:00:00 (CET)Xinzo De Limia, Spain (8050): precipitation: 13.03.2019 10:00:00 - 19.03.2019 10:00:00 (CET)
Date & Time tt [°C] td [°C] ff [km/h] ff [kn] fx [km/h] fx [kn] dd rr [mm]
19.03.2019 10:00:00 - - - - - - - -
19.03.2019 09:00:00 -0,2 -1,0 4 2 6 3 ENE 0,0
19.03.2019 08:00:00 -3,8 -4,6 1 0 3 2 NNW 0,0
19.03.2019 07:00:00 -3,2 -4,0 2 1 7 4 SE -
19.03.2019 06:00:00 -2,9 -3,9 3 2 7 4 N 0,0
19.03.2019 05:00:00 -1,5 -2,6 4 2 8 4 SSW 0,0
19.03.2019 04:00:00 -1,5 -2,8 2 1 5 3 NE 0,0
19.03.2019 03:00:00 0,0 -1,6 4 2 8 5 SW 0,0
19.03.2019 02:00:00 1,3 -0,6 4 2 11 6 W 0,0
19.03.2019 01:00:00 1,4 -1,0 5 3 11 6 W -
19.03.2019 00:00:00 2,1 -0,8 7 4 13 7 NW 0,0
18.03.2019 23:00:00 3,3 -0,5 7 4 13 7 W 0,0
18.03.2019 22:00:00 4,4 0,0 8 4 15 8 WNW 0,0
18.03.2019 21:00:00 4,7 -0,3 8 4 24 13 N 0,0
18.03.2019 20:00:00 6,6 -0,4 14 7 23 13 NNW 0,0
18.03.2019 19:00:00 8,9 -0,9 17 9 29 16 NNW -
18.03.2019 18:00:00 11,3 -0,8 18 10 28 15 NNW 0,0
18.03.2019 17:00:00 12,3 -0,5 14 8 26 14 NNW 0,0
18.03.2019 16:00:00 12,8 -0,8 12 7 23 12 NNW 0,0
18.03.2019 15:00:00 12,1 -1,7 4 2 17 9 NW 0,0
18.03.2019 14:00:00 11,5 -1,9 3 2 16 9 ESE 0,0
18.03.2019 13:00:00 9,7 -2,2 8 4 16 9 NE -
18.03.2019 12:00:00 7,6 -2,4 5 3 12 7 N 0,0
18.03.2019 11:00:00 4,9 0,5 4 2 9 5 NNE 0,0
18.03.2019 10:00:00 1,9 0,7 1 0 5 3 N 0,0
18.03.2019 09:00:00 -1,5 -2,5 3 1 4 2 E 0,0
18.03.2019 08:00:00 -5,4 -6,5 0 0 6 3 N 0,0
18.03.2019 07:00:00 -5,2 -6,3 1 0 4 2 ENE -
18.03.2019 06:00:00 -3,5 -4,9 4 2 8 4 S 0,0
18.03.2019 05:00:00 -2,8 -4,3 3 2 9 5 SSW 0,0
18.03.2019 04:00:00 -2,3 -4,2 4 2 9 5 SSW 0,0
18.03.2019 03:00:00 -1,8 -4,1 5 3 10 5 SW 0,0
18.03.2019 02:00:00 -1,1 -4,1 6 3 10 5 WSW 0,0
18.03.2019 01:00:00 0,3 -3,2 5 3 13 7 W -
18.03.2019 00:00:00 1,1 -2,6 8 4 26 14 WNW 0,0
17.03.2019 23:00:00 1,7 -2,6 13 7 29 15 N 0,0
17.03.2019 22:00:00 2,9 -2,0 18 10 30 16 NNW 0,0
17.03.2019 21:00:00 4,1 -2,1 21 12 31 17 N 0,0
17.03.2019 20:00:00 5,3 -2,0 15 8 21 11 N 0,0
17.03.2019 19:00:00 7,1 -1,3 14 8 23 13 N -
17.03.2019 18:00:00 8,7 0,2 16 9 30 16 N 0,0
17.03.2019 17:00:00 9,4 0,6 17 9 28 15 NNE 0,0
17.03.2019 16:00:00 10,7 1,3 16 9 28 15 N 0,0
17.03.2019 15:00:00 10,7 3,5 21 11 34 18 NNW 0,0
17.03.2019 14:00:00 9,7 4,1 18 10 29 15 N 0,0
17.03.2019 13:00:00 9,6 8,4 18 10 28 15 NNW -
17.03.2019 12:00:00 6,8 5,9 16 9 26 14 N 0,1
17.03.2019 11:00:00 6,7 5,8 6 4 13 7 N 0,3
17.03.2019 10:00:00 6,4 5,2 7 4 23 13 NNW 0,0
17.03.2019 09:00:00 6,1 4,9 10 6 23 12 W 0,0
17.03.2019 08:00:00 5,4 4,1 6 3 16 9 WSW 0,0
17.03.2019 07:00:00 5,2 3,7 5 3 13 7 SW -
17.03.2019 06:00:00 5,1 3,4 4 2 11 6 SW 0,0
17.03.2019 05:00:00 4,8 3,1 3 1 11 6 W 0,0
17.03.2019 04:00:00 4,8 3,1 5 3 10 6 W 0,0
17.03.2019 03:00:00 4,7 3,0 3 2 7 4 S 0,0
17.03.2019 02:00:00 4,7 3,2 6 3 14 8 WNW 0,0
17.03.2019 01:00:00 4,0 2,5 9 5 28 15 NW -
17.03.2019 00:00:00 4,0 1,9 10 6 21 11 W 0,0
16.03.2019 23:00:00 4,9 1,4 4 2 20 11 ENE 0,0
16.03.2019 22:00:00 8,0 0,7 13 7 24 13 W 0,0
16.03.2019 21:00:00 9,6 -3,6 9 5 24 13 WSW 0,0
16.03.2019 20:00:00 11,6 -3,7 7 4 24 13 W 0,0
16.03.2019 19:00:00 14,9 -1,6 13 7 31 17 W -
16.03.2019 18:00:00 17,2 0,0 16 9 34 18 W 0,0
16.03.2019 17:00:00 18,6 0,3 16 9 37 20 W 0,0
16.03.2019 16:00:00 19,3 0,4 19 10 36 19 W 0,0
16.03.2019 15:00:00 20,7 2,1 13 7 31 17 WSW 0,0
16.03.2019 14:00:00 20,4 2,7 14 7 30 16 SE 0,0
16.03.2019 13:00:00 19,0 1,5 16 9 26 14 SSE -
16.03.2019 12:00:00 17,7 1,3 15 8 28 15 SE 0,0
16.03.2019 11:00:00 15,4 1,6 17 9 27 15 SE 0,0
16.03.2019 10:00:00 5,9 4,2 2 1 9 5 SSW 0,0
16.03.2019 09:00:00 -0,7 -1,8 4 2 12 6 WSW 0,0
16.03.2019 08:00:00 -3,3 -4,4 8 4 11 6 SW 0,0
16.03.2019 07:00:00 -3,0 -4,3 7 4 13 7 SW -
16.03.2019 06:00:00 -3,0 -4,5 7 4 11 6 SW 0,0
16.03.2019 05:00:00 -2,7 -4,6 5 3 8 4 SW 0,0
16.03.2019 04:00:00 -2,8 -5,1 0 0 8 4 WNW 0,0
16.03.2019 03:00:00 -1,2 -3,7 4 2 10 5 S 0,0
16.03.2019 02:00:00 -0,7 -3,4 6 3 10 5 SSW 0,0
16.03.2019 01:00:00 -0,5 -3,5 3 1 5 3 WSW -
16.03.2019 00:00:00 0,0 -4,6 1 1 4 2 NNE 0,0
15.03.2019 23:00:00 2,8 -4,2 3 2 9 5 SSW 0,0
15.03.2019 22:00:00 5,3 -4,5 6 4 9 5 SSW 0,0
15.03.2019 21:00:00 7,6 -5,1 3 1 8 4 S 0,0
15.03.2019 20:00:00 11,8 -7,0 5 3 9 5 W 0,0
15.03.2019 19:00:00 16,3 -6,0 9 5 18 10 NNW -
15.03.2019 18:00:00 19,2 -2,4 11 6 21 11 NNW 0,0
15.03.2019 17:00:00 20,2 -2,1 12 7 18 10 N 0,0
15.03.2019 16:00:00 20,9 -1,0 8 4 13 7 NNE 0,0
15.03.2019 15:00:00 19,1 0,7 4 2 9 5 NE 0,0
15.03.2019 14:00:00 15,4 1,2 4 2 10 6 NNE 0,0
15.03.2019 13:00:00 10,3 9,4 3 1 8 5 NNE -
15.03.2019 12:00:00 4,8 4,1 3 2 8 4 NNW 0,0
15.03.2019 11:00:00 0,6 -0,1 0 0 5 3 NW 0,0
15.03.2019 10:00:00 -2,0 -2,7 1 1 4 2 N 0,0
15.03.2019 09:00:00 -4,0 -4,7 0 0 0 0 N 0,0
15.03.2019 08:00:00 -5,8 -6,5 0 0 3 2 NW 0,0
15.03.2019 07:00:00 -5,8 -6,6 0 0 3 2 N -
15.03.2019 06:00:00 -5,5 -6,3 0 0 3 1 NNE 0,0
15.03.2019 05:00:00 -4,1 -4,9 3 1 5 3 N 0,0
15.03.2019 04:00:00 -2,3 -3,3 3 2 5 3 SSW 0,0
15.03.2019 03:00:00 -1,2 -2,3 3 2 8 4 SW 0,0
15.03.2019 02:00:00 -0,3 -1,6 5 3 9 5 WSW 0,0
15.03.2019 01:00:00 -0,2 -1,9 3 2 6 3 W -
15.03.2019 00:00:00 1,5 -0,7 4 2 7 4 WSW 0,0
14.03.2019 23:00:00 3,4 0,5 5 3 11 6 W 0,0
14.03.2019 22:00:00 4,9 1,2 7 4 14 7 WNW 0,0
14.03.2019 21:00:00 6,1 1,3 9 5 17 9 NNW 0,0
14.03.2019 20:00:00 8,3 1,2 9 5 15 8 WNW 0,0
14.03.2019 19:00:00 10,7 1,5 9 5 18 10 NW -
14.03.2019 18:00:00 12,7 1,1 12 6 23 12 NW 0,0
14.03.2019 17:00:00 13,0 0,4 16 8 22 12 N 0,0
14.03.2019 16:00:00 13,2 0,3 15 8 23 12 N 0,0
14.03.2019 15:00:00 12,7 0,2 6 3 17 9 N 0,0
14.03.2019 14:00:00 11,4 2,4 9 5 16 9 N 0,0
14.03.2019 13:00:00 7,5 6,4 4 2 12 7 NE -
14.03.2019 12:00:00 3,9 3,2 2 1 12 7 N 0,0
14.03.2019 11:00:00 1,7 1,0 6 4 11 6 NE 0,0
14.03.2019 10:00:00 -0,4 -1,2 5 3 8 4 NE 0,0
14.03.2019 09:00:00 -1,5 -2,3 3 2 6 3 NE 0,0
14.03.2019 08:00:00 -3,9 -4,7 0 0 5 3 SSW 0,0
14.03.2019 07:00:00 -2,6 -3,4 5 3 8 5 W -
14.03.2019 06:00:00 -1,6 -2,6 4 2 11 6 SW 0,0
14.03.2019 05:00:00 -1,6 -2,7 8 4 10 5 SW 0,0
14.03.2019 04:00:00 -0,8 -1,9 6 3 11 6 WSW 0,0
14.03.2019 03:00:00 0,2 -0,9 8 4 12 7 NW 0,0
14.03.2019 02:00:00 0,6 -0,5 10 5 14 8 WNW 0,0
14.03.2019 01:00:00 0,1 -1,3 7 4 13 7 W -
14.03.2019 00:00:00 0,9 -0,7 6 3 10 6 NW 0,0
13.03.2019 23:00:00 1,2 -0,9 7 4 11 6 NNW 0,0
13.03.2019 22:00:00 2,6 -0,3 1 1 13 7 WSW 0,0
13.03.2019 21:00:00 3,5 -0,3 6 3 10 5 NW 0,0
13.03.2019 20:00:00 4,7 -0,1 9 5 31 17 N 0,0
13.03.2019 19:00:00 7,0 -0,2 16 9 33 18 NNW -
13.03.2019 18:00:00 8,0 0,5 23 12 36 20 NNW 0,0
13.03.2019 17:00:00 8,4 0,9 16 8 31 17 N 0,0
13.03.2019 16:00:00 10,0 1,7 18 10 32 17 NNW 0,0
13.03.2019 15:00:00 - - - - - - - -
13.03.2019 14:00:00 8,7 3,1 12 7 27 15 NNW 0,0
13.03.2019 13:00:00 6,6 2,5 15 8 24 13 N -
13.03.2019 12:00:00 6,4 3,4 16 9 26 14 N 0,0
13.03.2019 11:00:00 4,4 3,1 11 6 21 12 N 0,0
13.03.2019 10:00:00 3,1 2,2 11 6 19 10 NNW 0,0

tt = temperature
td = dewpoint
ff = wind speed
fx = gusts
dd = wind direction
rr = precipitation

Next stations